createdAt,value
2023-04-09T00:02:25.577Z,34.28
2023-04-09T00:05:05.398Z,32.25
2023-04-09T00:07:44.394Z,31.58
2023-04-09T00:10:22.270Z,32.03
2023-04-09T00:13:00.106Z,32.15
2023-04-09T00:15:37.168Z,31.93
2023-04-09T00:18:13.471Z,32.83
2023-04-09T00:20:47.935Z,30.90
2023-04-09T00:23:26.353Z,30.40
2023-04-09T00:26:02.753Z,31.52
2023-04-09T00:28:45.272Z,32.03
2023-04-09T00:31:23.684Z,31.00
2023-04-09T00:33:59.206Z,30.35
2023-04-09T00:36:38.427Z,32.20
2023-04-09T00:39:16.681Z,30.23
2023-04-09T00:41:54.261Z,31.63
2023-04-09T00:44:32.817Z,32.83
2023-04-09T00:47:11.742Z,32.90
2023-04-09T00:49:46.309Z,31.33
2023-04-09T00:52:25.160Z,30.80
2023-04-09T00:55:02.359Z,33.65
2023-04-09T00:57:39.757Z,32.00
2023-04-09T01:00:18.055Z,33.03
2023-04-09T01:02:57.447Z,32.50
2023-04-09T01:05:35.257Z,34.40
2023-04-09T01:08:13.005Z,32.63
2023-04-09T01:10:51.105Z,33.17
2023-04-09T01:13:30.653Z,32.05
2023-04-09T01:16:09.783Z,30.15
2023-04-09T01:18:48.873Z,33.50
2023-04-09T01:21:27.144Z,31.35
2023-04-09T01:24:06.315Z,32.63
2023-04-09T01:26:57.875Z,34.00
2023-04-09T01:29:45.753Z,31.52
2023-04-09T01:32:21.466Z,34.47
2023-04-09T01:34:56.414Z,33.80
2023-04-09T01:37:32.014Z,34.17
2023-04-09T01:40:10.674Z,35.47
2023-04-09T01:42:45.654Z,32.72
2023-04-09T01:45:24.308Z,32.58
2023-04-09T01:48:00.766Z,34.65
2023-04-09T01:50:37.326Z,34.88
2023-04-09T01:53:14.145Z,34.75
2023-04-09T01:55:49.314Z,34.63
2023-04-09T01:58:25.926Z,34.07
2023-04-09T02:01:06.886Z,35.40
2023-04-09T02:03:43.627Z,34.22
2023-04-09T02:06:24.285Z,33.95
2023-04-09T02:09:00.201Z,34.88
2023-04-09T02:11:38.196Z,35.47
2023-04-09T02:14:14.221Z,35.47
2023-04-09T02:16:53.726Z,35.63
2023-04-09T02:19:29.527Z,35.25
2023-04-09T02:22:04.768Z,35.00
2023-04-09T02:24:40.761Z,36.10
2023-04-09T02:27:17.212Z,35.30
2023-04-09T02:29:57.512Z,38.42
2023-04-09T02:32:37.092Z,38.15
2023-04-09T02:35:14.938Z,37.78
2023-04-09T02:37:51.567Z,37.38
2023-04-09T02:40:29.193Z,34.85
2023-04-09T02:43:06.173Z,35.67
2023-04-09T02:45:43.812Z,36.03
2023-04-09T02:48:19.378Z,35.55
2023-04-09T02:50:57.955Z,35.47
2023-04-09T02:53:34.354Z,38.22
2023-04-09T02:56:11.026Z,35.05
2023-04-09T02:58:49.802Z,38.80
2023-04-09T03:01:29.326Z,37.75
2023-04-09T03:04:05.161Z,37.75
2023-04-09T03:06:44.173Z,36.65
2023-04-09T03:09:19.630Z,36.92
2023-04-09T03:11:54.963Z,36.27
2023-04-09T03:14:34.805Z,38.22
2023-04-09T03:17:09.988Z,37.45
2023-04-09T03:19:47.013Z,37.80
2023-04-09T03:22:28.162Z,39.17
2023-04-09T03:25:06.489Z,37.10
2023-04-09T03:27:42.625Z,37.53
2023-04-09T03:30:21.637Z,38.07
2023-04-09T03:32:59.816Z,37.10
2023-04-09T03:35:38.882Z,38.20
2023-04-09T03:38:18.812Z,37.88
2023-04-09T03:40:55.699Z,37.30
2023-04-09T03:43:32.125Z,39.03
2023-04-09T03:46:14.864Z,37.90
2023-04-09T03:48:53.833Z,37.97
2023-04-09T03:51:32.464Z,38.50
2023-04-09T03:54:11.588Z,37.97
2023-04-09T03:56:50.816Z,38.83
2023-04-09T03:59:33.615Z,37.25
2023-04-09T04:02:08.588Z,37.35
2023-04-09T04:04:49.263Z,37.97
2023-04-09T04:07:24.706Z,36.20
2023-04-09T04:10:15.531Z,36.83
2023-04-09T04:12:54.350Z,38.65
2023-04-09T04:15:45.464Z,38.80
2023-04-09T04:18:22.950Z,35.67
2023-04-09T04:21:02.068Z,39.35
2023-04-09T04:23:40.890Z,38.10
2023-04-09T04:26:36.260Z,37.80
2023-04-09T04:29:14.812Z,36.17
2023-04-09T04:31:59.649Z,37.05
2023-04-09T04:34:41.545Z,36.75
2023-04-09T04:37:29.195Z,39.30
2023-04-09T04:40:09.824Z,39.97
2023-04-09T04:42:55.153Z,37.83
2023-04-09T04:45:29.494Z,38.15
2023-04-09T04:48:13.389Z,39.47
2023-04-09T04:50:59.988Z,41.08
2023-04-09T04:53:42.255Z,42.65
2023-04-09T04:56:22.853Z,41.25
2023-04-09T04:59:07.261Z,41.33
2023-04-09T05:01:58.857Z,39.07
2023-04-09T05:04:37.530Z,39.83
2023-04-09T05:07:17.944Z,41.47
2023-04-09T05:09:59.899Z,40.33
2023-04-09T05:12:39.779Z,41.22
2023-04-09T05:15:19.552Z,40.63
2023-04-09T05:17:59.943Z,42.47
2023-04-09T05:20:35.866Z,41.60
2023-04-09T05:23:18.357Z,40.47
2023-04-09T05:25:56.644Z,40.80
2023-04-09T05:28:43.886Z,39.95
2023-04-09T05:31:27.695Z,40.08
2023-04-09T05:34:18.091Z,41.28
2023-04-09T05:37:01.417Z,40.35
2023-04-09T05:39:37.593Z,43.38
2023-04-09T05:42:13.119Z,36.75
2023-04-09T05:45:07.156Z,39.22
2023-04-09T05:47:45.219Z,40.50
2023-04-09T05:50:53.281Z,41.28
2023-04-09T05:53:34.887Z,40.00
2023-04-09T05:56:18.073Z,43.17
2023-04-09T05:59:01.064Z,44.37
2023-04-09T06:04:16.832Z,42.85
2023-04-09T06:06:53.355Z,45.50
2023-04-09T06:09:32.117Z,47.53
2023-04-09T06:12:08.206Z,44.75
2023-04-09T06:17:20.916Z,41.60
2023-04-09T06:22:31.555Z,42.05
2023-04-09T06:25:11.187Z,44.45
2023-04-09T06:27:47.288Z,44.90
2023-04-09T06:32:58.755Z,44.17
2023-04-09T06:35:33.683Z,42.33
2023-04-09T06:38:12.835Z,42.67
2023-04-09T06:40:55.024Z,43.17
2023-04-09T06:43:31.078Z,42.72
2023-04-09T06:46:08.888Z,42.58
2023-04-09T06:48:45.940Z,44.20
2023-04-09T06:51:24.659Z,42.90
2023-04-09T06:54:02.013Z,41.85
2023-04-09T06:56:44.190Z,41.25
2023-04-09T06:59:21.413Z,43.70
2023-04-09T07:02:00.603Z,42.50
2023-04-09T07:04:46.001Z,44.35
2023-04-09T07:07:25.846Z,43.57
2023-04-09T07:10:04.264Z,45.20
2023-04-09T07:12:44.061Z,47.28
2023-04-09T07:15:24.157Z,46.05
2023-04-09T07:20:38.828Z,45.53
2023-04-09T07:23:16.068Z,43.55
2023-04-09T07:25:52.079Z,46.22
2023-04-09T07:28:35.601Z,41.22
2023-04-09T07:31:11.510Z,42.03
2023-04-09T07:36:24.557Z,42.75
2023-04-09T07:39:02.355Z,40.85
2023-04-09T07:41:40.094Z,43.17
2023-04-09T07:44:19.815Z,43.53
2023-04-09T07:46:55.759Z,44.85
2023-04-09T07:49:33.568Z,43.85
2023-04-09T07:52:13.972Z,42.22
2023-04-09T07:54:51.319Z,41.72
2023-04-09T07:57:28.423Z,43.70
2023-04-09T08:00:10.969Z,40.80
2023-04-09T08:02:51.502Z,41.97
2023-04-09T08:05:31.136Z,41.63
2023-04-09T08:08:06.733Z,41.60
2023-04-09T08:10:47.182Z,41.85
2023-04-09T08:13:27.840Z,41.50
2023-04-09T08:16:08.553Z,41.88
2023-04-09T08:18:48.709Z,41.50
2023-04-09T08:21:23.012Z,42.78
2023-04-09T08:24:01.746Z,42.80
2023-04-09T08:26:40.067Z,41.60
2023-04-09T08:29:16.053Z,40.47
2023-04-09T08:31:54.048Z,41.27
2023-04-09T08:34:29.232Z,42.00
2023-04-09T08:37:05.523Z,40.67
2023-04-09T08:39:42.819Z,38.72
2023-04-09T08:42:18.528Z,40.25
2023-04-09T08:44:53.821Z,38.37
2023-04-09T08:47:34.157Z,40.75
2023-04-09T08:50:12.858Z,38.42
2023-04-09T08:52:48.225Z,39.08
2023-04-09T08:55:24.430Z,41.65
2023-04-09T08:57:59.378Z,38.58
2023-04-09T09:00:35.044Z,39.67
2023-04-09T09:03:14.224Z,39.55
2023-04-09T09:05:51.037Z,38.25
2023-04-09T09:08:28.542Z,38.30
2023-04-09T09:11:05.828Z,39.33
2023-04-09T09:13:40.523Z,37.25
2023-04-09T09:16:19.240Z,37.25
2023-04-09T09:18:59.269Z,37.00
2023-04-09T09:21:39.000Z,38.63
2023-04-09T09:24:22.355Z,40.13
2023-04-09T09:27:00.972Z,38.80
2023-04-09T09:29:40.861Z,37.35
2023-04-09T09:32:21.261Z,38.10
2023-04-09T09:35:05.628Z,36.20
2023-04-09T09:37:41.935Z,36.92
2023-04-09T09:40:31.763Z,36.20
2023-04-09T09:43:06.006Z,36.58
2023-04-09T09:45:41.739Z,36.80
2023-04-09T09:48:19.884Z,37.92
2023-04-09T09:50:59.480Z,38.45
2023-04-09T09:53:35.048Z,37.70
2023-04-09T09:56:20.069Z,37.70
2023-04-09T09:58:58.148Z,37.05
2023-04-09T10:01:33.195Z,41.13
2023-04-09T10:04:13.887Z,39.10
2023-04-09T10:06:53.559Z,38.28
2023-04-09T10:09:31.764Z,35.17
2023-04-09T10:12:07.857Z,37.95
2023-04-09T10:17:20.128Z,35.57
2023-04-09T10:22:34.507Z,39.15
2023-04-09T10:25:13.907Z,38.28
2023-04-09T10:27:49.850Z,38.30
2023-04-09T10:30:35.749Z,39.60
2023-04-09T10:33:13.480Z,38.25
2023-04-09T10:35:47.356Z,37.47
2023-04-09T10:38:38.270Z,39.00
2023-04-09T10:41:22.544Z,35.10
2023-04-09T10:44:10.087Z,37.67
2023-04-09T10:46:48.305Z,35.50
2023-04-09T10:49:23.777Z,37.08
2023-04-09T10:52:05.020Z,33.22
2023-04-09T10:54:59.070Z,37.45
2023-04-09T10:57:35.325Z,38.63
2023-04-09T11:00:14.484Z,38.72
2023-04-09T11:03:30.820Z,39.92
2023-04-09T11:06:09.814Z,37.40
2023-04-09T11:08:48.688Z,36.60
2023-04-09T11:11:23.330Z,38.53
2023-04-09T11:14:05.721Z,37.90
2023-04-09T11:16:41.055Z,37.00
2023-04-09T11:19:20.640Z,37.60
2023-04-09T11:21:55.313Z,36.13
2023-04-09T11:24:30.636Z,36.35
2023-04-09T11:27:08.391Z,38.78
2023-04-09T11:29:48.300Z,38.80
2023-04-09T11:32:23.460Z,36.10
2023-04-09T11:35:00.325Z,37.60
2023-04-09T11:37:35.488Z,37.60
2023-04-09T11:40:21.292Z,38.70
2023-04-09T11:43:00.092Z,38.10
2023-04-09T11:45:34.212Z,38.35
2023-04-09T11:48:16.300Z,38.20
2023-04-09T11:50:50.397Z,38.13
2023-04-09T11:53:28.603Z,40.55
2023-04-09T11:56:03.317Z,40.88
2023-04-09T11:58:41.013Z,39.97
2023-04-09T12:01:15.295Z,38.10
2023-04-09T12:03:58.919Z,36.67
2023-04-09T12:06:33.730Z,37.65
2023-04-09T12:09:09.435Z,38.60
2023-04-09T12:11:47.696Z,39.67
2023-04-09T12:14:25.380Z,40.95
2023-04-09T12:17:03.830Z,39.38
2023-04-09T12:19:43.280Z,38.55
2023-04-09T12:22:21.807Z,40.55
2023-04-09T12:24:56.326Z,38.92
2023-04-09T12:27:34.769Z,37.65
2023-04-09T12:30:13.788Z,39.83
2023-04-09T12:32:49.976Z,40.40
2023-04-09T12:35:32.939Z,40.70
2023-04-09T12:38:10.741Z,40.80
2023-04-09T12:40:45.457Z,39.78
2023-04-09T12:43:24.631Z,41.03
2023-04-09T12:46:02.021Z,41.83
2023-04-09T12:48:37.384Z,43.03
2023-04-09T12:51:17.481Z,38.55
2023-04-09T12:53:55.786Z,38.92
2023-04-09T12:56:32.900Z,40.17
2023-04-09T12:59:11.009Z,39.70
2023-04-09T13:01:50.972Z,42.22
2023-04-09T13:04:29.738Z,40.90
2023-04-09T13:07:12.750Z,41.78
2023-04-09T13:09:48.965Z,41.60
2023-04-09T13:12:26.549Z,41.30
2023-04-09T13:15:04.209Z,41.03
2023-04-09T13:17:40.427Z,40.88
2023-04-09T13:20:18.981Z,40.10
2023-04-09T13:22:57.656Z,40.13
2023-04-09T13:25:34.110Z,38.63
2023-04-09T13:28:10.601Z,40.75
2023-04-09T13:30:49.831Z,41.53
2023-04-09T13:33:26.974Z,41.13
2023-04-09T13:36:05.265Z,41.45
2023-04-09T13:38:49.818Z,41.88
2023-04-09T13:41:31.976Z,39.47
2023-04-09T13:44:07.923Z,41.25
2023-04-09T13:46:43.771Z,39.90
2023-04-09T13:49:21.678Z,39.95
2023-04-09T13:51:57.203Z,40.90
2023-04-09T13:54:36.737Z,43.17
2023-04-09T13:57:15.719Z,41.35
2023-04-09T13:59:50.709Z,40.88
2023-04-09T14:02:28.620Z,41.78
2023-04-09T14:05:06.424Z,41.70
2023-04-09T14:07:45.334Z,40.00
2023-04-09T14:10:24.496Z,43.75
2023-04-09T14:13:06.817Z,44.75
2023-04-09T14:15:42.684Z,44.28
2023-04-09T14:18:20.034Z,40.78
2023-04-09T14:20:56.190Z,41.45
2023-04-09T14:23:32.134Z,42.47
2023-04-09T14:26:13.246Z,42.85
2023-04-09T14:28:49.633Z,45.33
2023-04-09T14:31:26.589Z,44.10
2023-04-09T14:34:02.808Z,43.70
2023-04-09T14:39:14.994Z,43.10
2023-04-09T14:41:54.886Z,38.75
2023-04-09T14:44:32.181Z,40.30
2023-04-09T14:47:11.563Z,36.00
2023-04-09T14:49:46.368Z,44.17
2023-04-09T14:52:22.453Z,43.03
2023-04-09T14:55:00.131Z,40.03
2023-04-09T14:57:38.561Z,42.67
2023-04-09T15:00:17.102Z,41.67
2023-04-09T15:02:52.821Z,40.65
2023-04-09T15:05:28.718Z,42.88
2023-04-09T15:08:04.023Z,42.25
2023-04-09T15:10:41.032Z,41.13
2023-04-09T15:13:19.885Z,43.55
2023-04-09T15:15:54.905Z,41.25
2023-04-09T15:18:30.560Z,42.05
2023-04-09T15:21:09.403Z,44.30
2023-04-09T15:23:44.864Z,43.60
2023-04-09T15:26:19.890Z,42.30
2023-04-09T15:29:00.805Z,43.50
2023-04-09T15:31:41.353Z,43.35
2023-04-09T15:34:16.900Z,44.37
2023-04-09T15:36:53.225Z,45.73
2023-04-09T15:39:29.334Z,44.40
2023-04-09T15:44:47.068Z,46.88
2023-04-09T15:47:21.375Z,43.67
2023-04-09T15:49:59.565Z,43.40
2023-04-09T15:52:40.568Z,44.07
2023-04-09T15:55:19.214Z,43.75
2023-04-09T15:57:55.524Z,44.72
2023-04-09T16:00:35.362Z,41.05
2023-04-09T16:03:11.416Z,46.15
2023-04-09T16:08:23.649Z,49.90
2023-04-09T16:10:58.400Z,48.47
2023-04-09T16:13:36.419Z,46.60
2023-04-09T16:16:18.809Z,48.23
2023-04-09T16:18:56.203Z,46.83
2023-04-09T16:21:33.171Z,51.22
2023-04-09T16:24:11.718Z,51.00
2023-04-09T16:26:49.218Z,48.78
2023-04-09T16:29:24.748Z,51.90
2023-04-09T16:32:04.102Z,48.40
2023-04-09T16:34:39.812Z,52.65
2023-04-09T16:37:18.681Z,51.65
2023-04-09T16:39:53.104Z,43.70
2023-04-09T16:42:31.360Z,50.67
2023-04-09T16:45:10.584Z,52.92
2023-04-09T16:47:51.919Z,48.65
2023-04-09T16:50:29.389Z,49.28
2023-04-09T16:55:41.156Z,48.28
2023-04-09T16:58:18.424Z,53.08
2023-04-09T17:00:59.872Z,51.17
2023-04-09T17:03:40.219Z,50.03
2023-04-09T17:06:14.136Z,49.42
2023-04-09T17:08:51.659Z,48.70
2023-04-09T17:11:34.486Z,45.75
2023-04-09T17:14:10.226Z,46.30
2023-04-09T17:16:47.526Z,44.90
2023-04-09T17:19:26.120Z,43.87
2023-04-09T17:22:02.039Z,43.43
2023-04-09T17:24:49.104Z,45.50
2023-04-09T17:27:32.816Z,41.85
2023-04-09T17:30:11.168Z,39.17
2023-04-09T17:32:49.244Z,42.28
2023-04-09T17:35:30.393Z,35.38
2023-04-09T17:38:05.948Z,44.40
2023-04-09T17:40:41.036Z,43.55
2023-04-09T17:43:21.883Z,42.60
2023-04-09T17:45:58.577Z,46.45
2023-04-09T17:48:37.209Z,42.83
2023-04-09T17:51:19.193Z,44.30
2023-04-09T17:53:57.105Z,45.00
2023-04-09T17:56:35.835Z,43.33
2023-04-09T17:59:14.194Z,37.10
2023-04-09T18:01:51.717Z,42.97
2023-04-09T18:04:28.021Z,41.22
2023-04-09T18:07:08.667Z,41.45
2023-04-09T18:09:45.256Z,42.95
2023-04-09T18:12:20.438Z,44.08
2023-04-09T18:14:56.360Z,44.17
2023-04-09T18:17:33.379Z,40.60
2023-04-09T18:20:10.706Z,34.35
2023-04-09T18:22:52.827Z,34.75
2023-04-09T18:25:29.204Z,38.25
2023-04-09T18:28:05.554Z,41.35
2023-04-09T18:30:44.119Z,42.80
2023-04-09T18:33:21.545Z,46.47
2023-04-09T18:35:58.286Z,46.75
2023-04-09T18:38:37.430Z,48.22
2023-04-09T18:41:17.017Z,38.40
2023-04-09T18:43:53.954Z,47.80
2023-04-09T18:46:31.876Z,48.25
2023-04-09T18:49:07.598Z,50.58
2023-04-09T18:51:43.829Z,42.53
2023-04-09T18:54:26.034Z,40.25
2023-04-09T18:57:04.537Z,41.80
2023-04-09T18:59:43.119Z,43.30
2023-04-09T19:02:19.295Z,44.28
2023-04-09T19:07:34.017Z,47.60
2023-04-09T19:10:14.224Z,50.70
2023-04-09T19:12:54.173Z,48.70
2023-04-09T19:15:31.038Z,53.25
2023-04-09T19:18:08.163Z,49.65
2023-04-09T19:20:44.145Z,47.28
2023-04-09T19:26:01.887Z,48.00
2023-04-09T19:28:49.187Z,39.20
2023-04-09T19:31:27.846Z,43.23
2023-04-09T19:34:02.434Z,44.65
2023-04-09T19:36:40.492Z,45.28
2023-04-09T19:39:17.396Z,47.13
2023-04-09T19:41:57.627Z,53.10
2023-04-09T19:44:33.590Z,57.45
2023-04-09T19:49:56.193Z,57.03
2023-04-09T19:52:32.423Z,53.88
2023-04-09T19:55:11.702Z,59.22
2023-04-09T19:57:53.754Z,56.25
2023-04-09T20:00:33.962Z,61.05
2023-04-09T20:03:12.591Z,56.25
2023-04-09T20:05:48.612Z,55.05
2023-04-09T20:08:29.784Z,48.72
2023-04-09T20:11:12.514Z,48.83
2023-04-09T20:13:50.840Z,47.65
2023-04-09T20:16:26.600Z,55.50
2023-04-09T20:19:03.689Z,56.03
2023-04-09T20:21:43.010Z,56.53
2023-04-09T20:24:23.000Z,61.40
2023-04-09T20:27:00.577Z,60.30
2023-04-09T20:29:40.489Z,59.77
2023-04-09T20:32:16.160Z,56.25
2023-04-09T20:34:53.066Z,60.67
2023-04-09T20:37:28.498Z,59.40
2023-04-09T20:40:04.001Z,54.80
2023-04-09T20:42:42.521Z,59.42
2023-04-09T20:45:21.656Z,56.20
2023-04-09T20:47:58.166Z,50.23
2023-04-09T20:50:36.680Z,63.45
2023-04-09T20:53:14.055Z,59.85
2023-04-09T20:55:51.379Z,63.75
2023-04-09T20:58:30.742Z,60.17
2023-04-09T21:01:13.796Z,59.95
2023-04-09T21:03:53.273Z,60.73
2023-04-09T21:06:29.461Z,59.75
2023-04-09T21:14:16.760Z,58.90
2023-04-09T21:16:56.504Z,63.92
2023-04-09T21:19:32.343Z,62.38
2023-04-09T21:22:08.120Z,62.45
2023-04-09T21:24:45.605Z,57.60
2023-04-09T21:27:21.511Z,59.33
2023-04-09T21:29:59.352Z,49.03
2023-04-09T21:32:38.876Z,58.67
2023-04-09T21:35:14.645Z,58.10
2023-04-09T21:37:52.764Z,51.97
2023-04-09T21:40:30.533Z,56.75
2023-04-09T21:43:09.379Z,58.15
2023-04-09T21:45:44.979Z,50.65
2023-04-09T21:48:24.511Z,49.35
2023-04-09T21:51:02.508Z,48.13
2023-04-09T21:53:36.515Z,48.42
2023-04-09T21:56:12.428Z,50.35
2023-04-09T21:58:50.779Z,52.65
2023-04-09T22:01:29.519Z,49.30
2023-04-09T22:04:09.056Z,52.55
2023-04-09T22:06:44.633Z,43.22
2023-04-09T22:09:21.153Z,53.90
2023-04-09T22:11:57.927Z,48.20
2023-04-09T22:14:35.514Z,54.53
2023-04-09T22:17:11.216Z,45.40
2023-04-09T22:19:51.387Z,50.50
2023-04-09T22:22:28.659Z,47.33
2023-04-09T22:25:04.574Z,48.22
2023-04-09T22:27:43.640Z,51.57
2023-04-09T22:30:22.213Z,48.28
2023-04-09T22:32:57.473Z,48.58
2023-04-09T22:35:36.818Z,45.37
2023-04-09T22:38:15.675Z,51.80
2023-04-09T22:40:53.240Z,49.35
2023-04-09T22:43:27.668Z,46.55
2023-04-09T22:46:05.450Z,37.03
2023-04-09T22:48:44.866Z,36.60
2023-04-09T22:51:24.024Z,35.25
2023-04-09T22:54:00.112Z,41.90
2023-04-09T22:56:37.973Z,42.58
2023-04-09T22:59:15.467Z,42.03
2023-04-09T23:01:51.313Z,44.65
2023-04-09T23:04:27.307Z,46.23
2023-04-09T23:07:06.866Z,45.03
2023-04-09T23:09:43.924Z,38.53
2023-04-09T23:12:19.118Z,37.35
2023-04-09T23:14:55.195Z,37.90
2023-04-09T23:20:07.075Z,39.90
2023-04-09T23:22:45.728Z,33.90
2023-04-09T23:25:23.246Z,35.83
2023-04-09T23:27:58.444Z,32.67
2023-04-09T23:30:34.515Z,36.57
2023-04-09T23:35:45.668Z,42.92
2023-04-09T23:38:25.772Z,39.17
2023-04-09T23:41:03.231Z,47.15
2023-04-09T23:43:37.262Z,41.63
2023-04-09T23:46:12.222Z,42.25
2023-04-09T23:48:47.975Z,41.58
2023-04-09T23:51:27.285Z,44.13
2023-04-09T23:54:01.873Z,40.05
2023-04-09T23:56:40.904Z,52.58
2023-04-09T23:59:16.395Z,47.88
